Time;durP1;ratioP1;P1;durP2;ratioP2;P2;SDS_P1;SDS_P2;PMS_P1;PMS_P2;Temp;Humidity;BMP_temperature;BMP_pressure;BME280_temperature;BME280_humidity;BME280_pressure;Samples;Min_cycle;Max_cycle;Signal;HPM_P1;HPM_P2
2022/06/27 00:01:05;;;;;;;7.05;4.50;;;16.90;99.90;;;;;;6247113;23;20023;-82
2022/06/27 00:03:31;;;;;;;6.53;4.20;;;16.90;99.90;;;;;;6247273;23;20103;-82
2022/06/27 00:05:57;;;;;;;7.68;4.65;;;16.90;99.90;;;;;;6221320;23;20095;-82
2022/06/27 00:08:22;;;;;;;8.55;4.80;;;16.90;99.90;;;;;;6220631;23;20349;-81
2022/06/27 00:10:48;;;;;;;8.20;5.07;;;16.70;99.90;;;;;;6247515;23;20090;-81
2022/06/27 00:13:14;;;;;;;9.05;5.53;;;16.70;99.90;;;;;;6220756;23;20432;-81
2022/06/27 00:15:39;;;;;;;7.13;5.25;;;16.70;99.90;;;;;;6247450;23;20096;-83
2022/06/27 00:18:05;;;;;;;9.23;6.05;;;16.60;99.90;;;;;;6247508;23;20020;-81
2022/06/27 00:20:31;;;;;;;8.40;5.75;;;16.50;99.90;;;;;;6220929;23;20024;-81
2022/06/27 00:22:57;;;;;;;10.80;6.40;;;16.40;99.90;;;;;;6220663;23;20515;-82
2022/06/27 00:25:22;;;;;;;12.07;6.35;;;16.30;99.90;;;;;;6247818;23;20016;-81
2022/06/27 00:27:48;;;;;;;9.88;6.03;;;16.30;99.90;;;;;;6220543;23;20435;-81
2022/06/27 00:30:14;;;;;;;8.38;5.68;;;16.20;99.90;;;;;;6247438;23;20336;-81
2022/06/27 00:32:40;;;;;;;7.90;5.50;;;16.30;99.90;;;;;;6247112;23;20376;-81
2022/06/27 00:35:08;;;;;;;9.25;6.05;;;16.30;99.90;;;;;;6247272;23;20027;-82
2022/06/27 00:37:34;;;;;;;10.25;6.55;;;16.30;99.90;;;;;;6247179;23;20020;-82
2022/06/27 00:40:00;;;;;;;8.05;6.35;;;16.20;99.90;;;;;;6247239;23;20017;-81
2022/06/27 00:42:25;;;;;;;9.15;6.40;;;16.20;99.90;;;;;;6247168;23;20083;-81
2022/06/27 00:44:51;;;;;;;8.60;5.72;;;16.30;99.90;;;;;;6194808;23;20024;-82
2022/06/27 00:47:17;;;;;;;8.27;5.80;;;16.30;99.90;;;;;;6246677;23;20150;-82
2022/06/27 00:49:43;;;;;;;8.00;6.32;;;16.10;99.90;;;;;;6247047;23;20031;-81
2022/06/27 00:52:11;;;;;;;8.45;6.00;;;16.20;99.90;;;;;;6247278;23;20016;-81
2022/06/27 00:54:40;;;;;;;12.82;7.18;;;16.20;99.90;;;;;;6247098;23;20091;-81
2022/06/27 00:57:07;;;;;;;11.38;6.35;;;16.20;99.90;;;;;;6246922;23;20339;-81
2022/06/27 00:59:33;;;;;;;8.95;5.82;;;16.20;99.90;;;;;;6220393;23;20024;-81
2022/06/27 01:01:59;;;;;;;9.10;6.28;;;16.10;99.90;;;;;;6220056;23;20012;-81
2022/06/27 01:04:25;;;;;;;11.15;6.47;;;16.10;99.90;;;;;;6246996;23;20020;-81
2022/06/27 01:06:53;;;;;;;10.55;6.20;;;16.10;99.90;;;;;;6218806;23;20016;-81
2022/06/27 01:09:21;;;;;;;5.95;4.88;;;16.10;99.90;;;;;;6246910;23;20037;-81
2022/06/27 01:11:46;;;;;;;9.77;6.20;;;16.00;99.90;;;;;;6220218;23;20052;-81
2022/06/27 01:14:13;;;;;;;8.18;5.80;;;16.00;99.90;;;;;;6219759;23;20043;-81
2022/06/27 01:16:41;;;;;;;8.10;5.57;;;16.10;99.90;;;;;;6246559;23;20016;-81
2022/06/27 01:19:12;;;;;;;8.38;6.18;;;16.10;99.90;;;;;;6246914;23;20012;-81
2022/06/27 01:21:43;;;;;;;8.60;6.13;;;16.10;99.90;;;;;;6246421;23;20495;-81
2022/06/27 01:24:10;;;;;;;12.68;7.05;;;16.20;99.90;;;;;;6246755;23;20016;-81
2022/06/27 01:26:36;;;;;;;11.43;6.97;;;16.20;99.90;;;;;;6219783;23;20020;-81
2022/06/27 01:29:02;;;;;;;10.32;6.63;;;16.00;99.90;;;;;;6219985;23;20103;-81
2022/06/27 01:31:29;;;;;;;7.93;5.68;;;16.20;99.90;;;;;;6219862;23;20317;-81
2022/06/27 01:33:55;;;;;;;7.28;5.38;;;16.20;99.90;;;;;;6219878;23;20090;-81
2022/06/27 01:39:05;;;;;;;11.18;6.38;;;16.20;99.90;;;;;;6219780;23;20098;-81
2022/06/27 01:41:30;;;;;;;11.18;5.45;;;16.20;99.90;;;;;;6246764;23;20050;-81
2022/06/27 01:43:57;;;;;;;8.68;5.05;;;16.40;99.90;;;;;;6246565;23;20092;-81
2022/06/27 01:46:22;;;;;;;8.73;5.28;;;16.30;99.90;;;;;;6219741;23;20347;-81
2022/06/27 01:48:48;;;;;;;9.90;6.03;;;16.30;99.90;;;;;;6219754;23;20016;-82
2022/06/27 01:51:14;;;;;;;11.15;5.40;;;16.40;99.90;;;;;;6194094;23;20095;-81
2022/06/27 01:53:40;;;;;;;7.20;5.65;;;16.40;99.90;;;;;;6246827;23;20018;-81
2022/06/27 01:56:06;;;;;;;8.27;5.43;;;16.40;99.90;;;;;;6246236;23;20507;-81
2022/06/27 01:58:33;;;;;;;11.40;6.55;;;16.40;99.90;;;;;;6246600;23;20058;-81
2022/06/27 02:00:59;;;;;;;15.60;6.90;;;16.40;99.90;;;;;;6246168;23;20020;-81
2022/06/27 02:03:24;;;;;;;9.77;7.13;;;16.40;99.90;;;;;;6219598;23;20340;-81
2022/06/27 02:05:53;;;;;;;8.57;6.05;;;16.40;99.90;;;;;;6219237;23;20473;-81
2022/06/27 02:08:22;;;;;;;10.50;6.90;;;16.30;99.90;;;;;;6246427;23;20012;-81
2022/06/27 02:10:48;;;;;;;10.77;6.95;;;16.30;99.90;;;;;;6219488;23;20016;-83
2022/06/27 02:13:14;;;;;;;8.93;6.32;;;16.30;99.90;;;;;;6246179;23;20020;-81
2022/06/27 02:16:12;;;;;;;10.07;6.72;;;16.30;99.90;;;;;;6219470;23;20016;-82
2022/06/27 02:18:39;;;;;;;8.82;6.20;;;16.30;99.90;;;;;;6245761;23;20458;-81
2022/06/27 02:21:07;;;;;;;9.65;6.47;;;16.20;99.90;;;;;;6246284;23;20027;-81
2022/06/27 02:23:32;;;;;;;10.65;6.20;;;16.30;99.90;;;;;;6219108;23;20028;-81
2022/06/27 02:25:59;;;;;;;7.78;6.05;;;16.30;99.90;;;;;;6219386;23;20019;-81
2022/06/27 02:28:27;;;;;;;9.77;6.10;;;16.30;99.90;;;;;;6219375;23;20016;-81
2022/06/27 02:30:53;;;;;;;7.47;6.20;;;16.30;99.90;;;;;;6246321;23;20020;-81
2022/06/27 02:33:19;;;;;;;8.98;5.65;;;16.40;99.90;;;;;;6246115;23;20024;-81
2022/06/27 02:35:46;;;;;;;7.28;5.13;;;16.40;99.90;;;;;;6246437;23;20083;-81
2022/06/27 02:38:13;;;;;;;8.82;5.70;;;16.40;99.90;;;;;;6246097;23;20019;-81
2022/06/27 02:40:40;;;;;;;7.38;5.80;;;16.40;99.90;;;;;;6245993;23;20059;-81
2022/06/27 02:43:13;;;;;;;6.95;5.20;;;16.50;99.90;;;;;;6246111;23;20016;-81
2022/06/27 02:45:40;;;;;;;10.43;5.40;;;16.40;99.90;;;;;;6218438;23;20017;-82
2022/06/27 02:48:08;;;;;;;5.60;5.00;;;16.50;99.90;;;;;;6219316;23;20087;-81
2022/06/27 02:50:37;;;;;;;7.88;5.28;;;16.50;99.90;;;;;;6246043;23;20102;-81
2022/06/27 02:53:09;;;;;;;7.20;5.18;;;16.50;99.90;;;;;;6246006;23;20091;-82
2022/06/27 02:55:39;;;;;;;9.27;4.85;;;16.50;99.90;;;;;;6246014;23;20343;-81
2022/06/27 02:58:19;;;;;;;8.00;4.82;;;16.50;99.90;;;;;;6246110;23;20016;-81
2022/06/27 03:00:47;;;;;;;7.70;5.25;;;16.60;99.90;;;;;;6246174;23;20020;-81
2022/06/27 03:03:15;;;;;;;9.80;4.70;;;16.60;99.90;;;;;;6245571;23;20501;-81
2022/06/27 03:06:01;;;;;;;7.97;4.93;;;16.60;99.90;;;;;;6218871;23;20494;-81
2022/06/27 03:08:37;;;;;;;6.72;5.03;;;16.70;99.90;;;;;;6245958;23;20028;-81
2022/06/27 03:11:03;;;;;;;6.57;4.10;;;16.70;99.90;;;;;;6245954;23;20428;-81
2022/06/27 03:13:29;;;;;;;4.68;4.10;;;16.70;99.90;;;;;;6220522;23;20019;-81
2022/06/27 03:15:54;;;;;;;4.90;3.67;;;16.80;99.90;;;;;;6248070;23;20020;-81
2022/06/27 03:18:20;;;;;;;5.05;3.83;;;16.70;99.90;;;;;;6221012;23;20023;-81
2022/06/27 03:20:46;;;;;;;6.15;3.78;;;16.70;99.90;;;;;;6247534;23;20026;-81
2022/06/27 03:23:12;;;;;;;5.43;3.67;;;16.80;99.90;;;;;;6247956;23;20027;-81
2022/06/27 03:25:38;;;;;;;6.70;4.85;;;16.70;99.90;;;;;;6221149;23;20016;-81
2022/06/27 03:28:04;;;;;;;7.00;4.47;;;16.80;99.90;;;;;;6248028;23;20027;-81
2022/06/27 03:30:29;;;;;;;7.00;4.72;;;16.80;99.90;;;;;;6221186;23;20009;-81
2022/06/27 03:32:56;;;;;;;8.40;5.03;;;16.70;99.90;;;;;;6221022;23;20024;-82
2022/06/27 03:35:21;;;;;;;9.85;5.00;;;16.60;99.90;;;;;;6221030;23;20016;-81
2022/06/27 03:37:47;;;;;;;10.15;6.45;;;16.50;99.90;;;;;;6247905;23;20335;-81
2022/06/27 03:40:13;;;;;;;12.05;7.28;;;16.50;99.90;;;;;;6247922;23;20509;-81
2022/06/27 03:42:39;;;;;;;10.43;8.48;;;16.50;99.90;;;;;;6247800;23;20016;-81
2022/06/27 03:45:05;;;;;;;8.88;7.10;;;16.40;99.90;;;;;;6220897;23;20051;-81
2022/06/27 03:47:31;;;;;;;10.65;9.55;;;16.40;99.90;;;;;;6247704;23;20087;-82
2022/06/27 03:50:02;;;;;;;15.75;10.18;;;16.30;99.90;;;;;;6247293;23;20362;-82
2022/06/27 03:52:28;;;;;;;13.73;9.20;;;16.30;99.90;;;;;;6247485;23;20024;-82
2022/06/27 03:54:54;;;;;;;13.20;10.23;;;16.10;99.90;;;;;;6220655;23;20027;-82
2022/06/27 03:57:20;;;;;;;13.32;11.05;;;16.10;99.90;;;;;;6247338;23;20019;-82
2022/06/27 03:59:46;;;;;;;12.75;11.38;;;16.00;99.90;;;;;;6247577;23;20020;-82
2022/06/27 04:02:11;;;;;;;14.63;12.98;;;16.00;99.90;;;;;;6220787;23;20042;-82
2022/06/27 04:04:37;;;;;;;17.40;14.10;;;16.00;99.90;;;;;;6195648;23;20095;-82
2022/06/27 04:07:03;;;;;;;20.08;14.05;;;15.90;99.90;;;;;;6247534;23;20016;-82
2022/06/27 04:09:30;;;;;;;14.70;13.10;;;15.90;99.90;;;;;;6247497;23;20012;-83
2022/06/27 04:11:55;;;;;;;17.55;12.48;;;15.90;99.90;;;;;;6220777;23;20343;-82
2022/06/27 04:14:21;;;;;;;19.13;15.07;;;15.90;99.90;;;;;;6247528;23;20047;-82
2022/06/27 04:16:47;;;;;;;14.27;12.40;;;15.80;99.90;;;;;;6247487;23;20012;-82
2022/06/27 04:19:13;;;;;;;16.00;11.90;;;15.90;99.90;;;;;;6247454;23;20047;-83
2022/06/27 04:21:38;;;;;;;14.98;11.32;;;15.80;99.90;;;;;;6247308;23;20458;-82
2022/06/27 04:24:04;;;;;;;12.65;11.13;;;15.80;99.90;;;;;;6247171;23;20023;-82
2022/06/27 04:26:30;;;;;;;13.32;10.77;;;15.80;99.90;;;;;;6247341;23;20376;-82
2022/06/27 04:28:55;;;;;;;11.77;10.45;;;15.80;99.90;;;;;;6247321;23;20383;-82
2022/06/27 04:31:21;;;;;;;11.40;8.85;;;15.80;99.90;;;;;;6247965;23;20024;-81
2022/06/27 04:33:47;;;;;;;10.35;8.30;;;15.80;99.90;;;;;;6220462;23;20016;-82
2022/06/27 04:36:12;;;;;;;8.90;7.80;;;15.80;99.90;;;;;;6220405;23;20150;-82
2022/06/27 04:38:38;;;;;;;8.32;6.72;;;15.90;99.90;;;;;;6220516;23;20008;-82
2022/06/27 04:41:05;;;;;;;7.43;6.65;;;15.80;99.90;;;;;;6247162;23;20090;-82
2022/06/27 04:43:34;;;;;;;8.10;6.82;;;15.80;99.90;;;;;;6220428;23;20019;-82
2022/06/27 04:46:01;;;;;;;8.45;5.95;;;15.80;99.90;;;;;;6220504;23;20339;-83
2022/06/27 04:48:27;;;;;;;8.85;6.07;;;15.80;99.90;;;;;;6220299;23;20020;-82
2022/06/27 04:50:53;;;;;;;8.10;6.03;;;15.70;99.90;;;;;;6220192;23;20031;-83
2022/06/27 04:53:19;;;;;;;8.30;6.40;;;15.80;99.90;;;;;;6247310;23;20022;-82
2022/06/27 04:55:46;;;;;;;8.68;6.13;;;15.80;99.90;;;;;;6220359;23;20487;-82
2022/06/27 04:58:12;;;;;;;6.75;6.05;;;15.70;99.90;;;;;;6246707;23;20082;-82
2022/06/27 05:00:38;;;;;;;8.02;5.30;;;15.80;99.90;;;;;;6247204;23;20072;-83
2022/06/27 05:03:04;;;;;;;7.20;5.22;;;15.80;99.90;;;;;;6220230;23;20432;-82
2022/06/27 05:05:29;;;;;;;5.13;4.60;;;15.80;99.90;;;;;;6246647;23;20027;-82
2022/06/27 05:07:57;;;;;;;5.20;4.65;;;15.80;99.90;;;;;;6219897;23;20020;-82
2022/06/27 05:10:22;;;;;;;6.28;3.53;;;15.80;99.90;;;;;;6246911;23;20055;-82
2022/06/27 05:12:48;;;;;;;7.65;4.70;;;15.80;99.90;;;;;;6247075;23;20046;-83
2022/06/27 05:15:14;;;;;;;6.85;4.25;;;15.80;99.90;;;;;;6246886;23;20375;-82
2022/06/27 05:17:42;;;;;;;5.00;4.10;;;15.80;99.90;;;;;;6246725;23;20087;-82
2022/06/27 05:20:08;;;;;;;4.85;4.10;;;15.80;99.90;;;;;;6246776;23;20016;-83
2022/06/27 05:22:34;;;;;;;5.20;3.90;;;15.90;99.90;;;;;;6246692;23;20024;-82
2022/06/27 05:24:59;;;;;;;6.53;4.05;;;15.90;99.90;;;;;;6219452;23;20054;-82
2022/06/27 05:27:26;;;;;;;5.68;4.05;;;16.00;99.90;;;;;;6246817;23;20113;-82
2022/06/27 05:29:51;;;;;;;6.80;4.00;;;16.00;99.90;;;;;;6246837;23;20013;-82
2022/06/27 05:32:17;;;;;;;6.43;4.13;;;16.20;99.90;;;;;;6246746;23;20066;-82
2022/06/27 05:34:43;;;;;;;5.57;4.35;;;16.30;99.90;;;;;;6219569;23;20016;-82
2022/06/27 05:37:09;;;;;;;6.97;4.28;;;16.40;99.90;;;;;;6246468;23;20088;-82
2022/06/27 05:39:35;;;;;;;4.90;3.80;;;16.60;99.90;;;;;;6246720;23;20073;-82
2022/06/27 05:42:03;;;;;;;4.93;3.83;;;16.80;99.90;;;;;;6219916;23;20020;-82
2022/06/27 05:44:29;;;;;;;8.35;3.85;;;16.90;99.90;;;;;;6220000;23;20017;-83
2022/06/27 05:46:56;;;;;;;4.25;3.80;;;17.00;99.90;;;;;;6246419;23;20324;-83
2022/06/27 05:49:22;;;;;;;4.15;3.75;;;17.10;99.90;;;;;;6247024;23;20054;-82
2022/06/27 05:51:50;;;;;;;5.25;3.47;;;17.10;99.90;;;;;;6246389;23;20027;-83
2022/06/27 05:54:16;;;;;;;6.45;3.70;;;17.10;99.90;;;;;;6219419;23;20020;-83
2022/06/27 05:56:42;;;;;;;3.63;3.08;;;17.00;99.90;;;;;;6219580;23;20027;-83
2022/06/27 05:59:08;;;;;;;4.32;2.92;;;17.10;99.90;;;;;;6246513;23;20016;-82
2022/06/27 06:01:35;;;;;;;3.53;2.63;;;17.00;99.90;;;;;;6246292;23;20367;-82
2022/06/27 06:04:00;;;;;;;3.22;2.78;;;17.00;99.90;;;;;;6219673;23;20008;-82
2022/06/27 06:06:28;;;;;;;6.07;3.30;;;17.00;99.90;;;;;;6219153;23;20078;-82
2022/06/27 06:08:54;;;;;;;3.80;2.90;;;17.00;99.90;;;;;;6246330;23;20015;-82
2022/06/27 06:11:20;;;;;;;5.22;3.60;;;17.00;99.90;;;;;;6219618;23;20023;-82
2022/06/27 06:13:46;;;;;;;6.72;2.90;;;16.90;99.90;;;;;;6246494;23;20021;-82
2022/06/27 06:16:16;;;;;;;4.70;3.00;;;16.80;99.90;;;;;;6246639;23;20071;-82
2022/06/27 06:18:42;;;;;;;3.55;2.88;;;16.90;99.90;;;;;;6245970;23;20533;-82
2022/06/27 06:21:08;;;;;;;7.13;3.10;;;16.90;99.90;;;;;;6246129;23;20095;-83
2022/06/27 06:23:33;;;;;;;5.88;2.90;;;17.00;99.90;;;;;;6246290;23;20022;-82
2022/06/27 06:26:01;;;;;;;3.50;2.80;;;17.00;99.90;;;;;;6246279;23;20388;-82
2022/06/27 06:28:30;;;;;;;5.05;2.90;;;17.10;99.90;;;;;;6246613;23;20020;-81
2022/06/27 06:30:56;;;;;;;7.60;2.80;;;17.10;99.90;;;;;;6193993;23;20020;-82
2022/06/27 06:33:23;;;;;;;6.00;2.90;;;17.10;99.90;;;;;;6246235;23;20098;-83
2022/06/27 06:35:48;;;;;;;5.40;3.38;;;17.10;99.90;;;;;;6219371;23;20457;-82
2022/06/27 06:38:15;;;;;;;3.95;2.90;;;17.10;99.90;;;;;;6246924;23;20016;-82
2022/06/27 06:40:41;;;;;;;6.80;3.15;;;17.10;99.90;;;;;;6246100;23;20087;-82
2022/06/27 06:43:07;;;;;;;4.97;2.95;;;17.20;99.90;;;;;;6219489;23;20432;-82
2022/06/27 06:45:33;;;;;;;3.92;2.70;;;17.10;99.90;;;;;;6246082;23;20027;-82
2022/06/27 06:47:59;;;;;;;5.95;3.00;;;17.10;99.90;;;;;;6193759;23;20031;-82
2022/06/27 06:50:25;;;;;;;3.50;2.35;;;17.20;99.90;;;;;;6246275;23;20310;-83
2022/06/27 06:52:52;;;;;;;8.82;3.33;;;17.20;99.90;;;;;;6219244;23;20012;-82
2022/06/27 06:55:21;;;;;;;8.55;3.30;;;17.10;99.90;;;;;;6246098;23;20051;-82
2022/06/27 06:57:48;;;;;;;6.93;2.67;;;17.30;99.90;;;;;;6245651;23;20024;-82
2022/06/27 07:00:15;;;;;;;4.05;2.58;;;17.40;99.90;;;;;;6219392;23;20016;-82
2022/06/27 07:02:41;;;;;;;4.50;2.33;;;17.50;99.90;;;;;;6219355;23;20024;-82
2022/06/27 07:05:11;;;;;;;2.40;1.95;;;17.60;99.90;;;;;;6245958;23;20017;-82
2022/06/27 07:07:39;;;;;;;2.85;2.20;;;17.60;99.90;;;;;;6219402;23;20091;-83
2022/06/27 07:10:06;;;;;;;4.22;2.30;;;17.70;99.90;;;;;;6218810;23;20055;-82
2022/06/27 07:12:33;;;;;;;2.92;2.53;;;17.80;99.90;;;;;;6219564;23;20508;-82
2022/06/27 07:15:00;;;;;;;3.55;2.45;;;17.90;99.90;;;;;;6246060;23;20023;-82
2022/06/27 07:17:27;;;;;;;6.75;2.22;;;17.90;99.90;;;;;;6245880;23;20016;-82
2022/06/27 07:19:53;;;;;;;5.60;2.50;;;17.90;99.90;;;;;;6245913;23;20020;-82
2022/06/27 07:22:20;;;;;;;5.30;2.65;;;17.90;99.90;;;;;;6245965;23;20091;-82
2022/06/27 07:24:48;;;;;;;3.85;2.58;;;17.90;99.90;;;;;;6246055;23;20016;-82
2022/06/27 07:27:16;;;;;;;4.97;3.25;;;17.80;99.90;;;;;;6246263;23;20426;-81
2022/06/27 07:29:42;;;;;;;4.15;3.00;;;17.80;99.90;;;;;;6219441;23;20020;-82
2022/06/27 07:32:08;;;;;;;3.65;2.85;;;17.80;99.90;;;;;;6246269;23;20019;-82
2022/06/27 07:34:38;;;;;;;6.47;3.00;;;17.80;99.90;;;;;;6194191;23;20020;-83
2022/06/27 07:37:04;;;;;;;4.00;3.08;;;17.80;99.90;;;;;;6245943;23;20062;-82
2022/06/27 07:39:30;;;;;;;4.82;2.75;;;17.70;99.90;;;;;;6246137;23;20331;-83
2022/06/27 07:41:56;;;;;;;4.68;3.28;;;17.80;99.90;;;;;;6246224;23;20020;-83
2022/06/27 07:44:25;;;;;;;3.30;3.00;;;17.80;99.90;;;;;;6253527;23;20024;-83
2022/06/27 07:46:51;;;;;;;3.03;2.72;;;17.90;99.90;;;;;;6219731;23;20094;-82
2022/06/27 07:49:17;;;;;;;4.72;2.75;;;18.10;99.90;;;;;;6219228;23;20024;-83
2022/06/27 07:51:43;;;;;;;3.88;3.30;;;18.30;99.90;;;;;;6246340;23;20016;-83
2022/06/27 07:54:10;;;;;;;7.22;2.47;;;18.50;99.90;;;;;;6219637;23;20008;-83
2022/06/27 07:56:37;;;;;;;3.10;2.50;;;18.60;99.90;;;;;;6194176;23;20467;-83
2022/06/27 07:59:05;;;;;;;3.22;2.50;;;18.70;99.90;;;;;;6220328;23;20095;-82
2022/06/27 08:01:31;;;;;;;3.75;2.85;;;18.90;99.90;;;;;;6221265;23;20024;-81
2022/06/27 08:03:57;;;;;;;4.85;2.70;;;19.10;99.90;;;;;;6221334;23;20012;-83
2022/06/27 08:06:24;;;;;;;3.33;2.45;;;19.40;99.90;;;;;;6195805;23;20088;-83
2022/06/27 08:08:55;;;;;;;5.03;2.55;;;19.60;99.90;;;;;;6221070;23;20020;-83
2022/06/27 08:11:29;;;;;;;2.75;2.00;;;19.90;99.90;;;;;;6248218;23;20035;-83
2022/06/27 08:13:58;;;;;;;3.17;2.00;;;20.00;99.90;;;;;;6247809;23;20020;-82
2022/06/27 08:16:43;;;;;;;5.18;2.25;;;20.20;99.90;;;;;;6247533;23;20390;-82
2022/06/27 08:19:10;;;;;;;3.15;1.70;;;20.20;99.90;;;;;;6220709;23;20023;-84
2022/06/27 08:21:37;;;;;;;2.75;1.90;;;20.10;99.90;;;;;;6220897;23;20039;-83
2022/06/27 08:24:11;;;;;;;5.00;1.90;;;20.00;99.90;;;;;;6220855;23;20025;-83
2022/06/27 08:26:38;;;;;;;2.33;1.77;;;19.90;99.90;;;;;;6247290;23;20090;-82
2022/06/27 08:29:05;;;;;;;2.42;1.70;;;19.80;99.90;;;;;;6220622;23;20019;-82
2022/06/27 08:31:32;;;;;;;3.22;1.65;;;19.80;99.90;;;;;;6247131;23;20027;-83
2022/06/27 08:34:03;;;;;;;2.72;1.70;;;19.70;99.90;;;;;;6220537;23;20012;-83
2022/06/27 08:36:30;;;;;;;3.13;1.65;;;19.70;99.90;;;;;;6195442;23;20065;-83
2022/06/27 08:39:01;;;;;;;2.53;1.60;;;19.60;99.90;;;;;;6220620;23;20023;-83
2022/06/27 08:41:28;;;;;;;2.92;1.40;;;19.80;99.90;;;;;;6247299;23;20016;-83
2022/06/27 08:44:00;;;;;;;1.55;1.23;;;19.90;99.90;;;;;;6247061;23;20016;-83
2022/06/27 08:46:27;;;;;;;3.92;1.25;;;20.10;99.90;;;;;;6247100;23;20055;-82
2022/06/27 08:48:52;;;;;;;75.45;7.55;;;20.50;99.90;;;;;;6220428;23;20012;-83
2022/06/27 08:51:18;;;;;;;7.28;1.50;;;20.90;99.90;;;;;;6246579;23;20383;-82
2022/06/27 08:53:44;;;;;;;6.43;1.35;;;21.30;99.90;;;;;;6195266;23;20016;-83
2022/06/27 08:56:13;;;;;;;3.30;1.13;;;21.60;99.90;;;;;;6247080;23;20091;-82
2022/06/27 08:58:40;;;;;;;2.47;1.05;;;22.00;99.90;;;;;;6246260;23;20048;-82
2022/06/27 09:01:07;;;;;;;2.67;1.33;;;22.50;99.90;;;;;;6247117;23;20020;-82
2022/06/27 09:03:34;;;;;;;4.82;1.60;;;23.20;99.90;;;;;;6247091;23;20038;-83
2022/06/27 09:06:05;;;;;;;2.85;1.30;;;23.60;99.90;;;;;;6247704;23;20021;-83
2022/06/27 09:08:52;;;;;;;2.15;1.20;;;23.70;99.90;;;;;;6195164;23;20080;-83
2022/06/27 09:11:30;;;;;;;3.60;1.30;;;23.60;99.90;;;;;;6246909;23;20016;-83
2022/06/27 09:13:56;;;;;;;5.45;1.40;;;23.20;99.90;;;;;;6220278;23;20062;-83
2022/06/27 09:16:22;;;;;;;3.38;1.35;;;22.70;99.90;;;;;;6247016;23;20376;-83
2022/06/27 09:18:47;;;;;;;2.28;1.40;;;22.20;99.90;;;;;;6220030;23;20336;-83
2022/06/27 09:21:13;;;;;;;3.38;1.42;;;21.70;99.90;;;;;;6218222;23;20048;-83
2022/06/27 09:23:58;;;;;;;3.15;1.15;;;21.30;99.90;;;;;;6246116;23;20023;-85
2022/06/27 09:26:28;;;;;;;3.10;1.55;;;20.90;99.90;;;;;;6246259;23;20024;-84
2022/06/27 09:29:12;;;;;;;3.20;1.60;;;20.70;99.90;;;;;;6219263;23;20102;-83
2022/06/27 09:31:42;;;;;;;3.28;1.98;;;20.40;99.90;;;;;;6219199;23;20020;-83
2022/06/27 09:34:18;;;;;;;2.23;1.40;;;20.30;99.90;;;;;;6219245;23;20059;-83
2022/06/27 09:36:49;;;;;;;4.45;1.40;;;20.30;99.90;;;;;;6219123;23;20024;-83
2022/06/27 09:39:19;;;;;;;;;;;20.20;99.90;;;;;;6219610;23;20482;-83
2022/06/27 09:41:56;;;;;;;2.25;1.45;;;20.20;99.90;;;;;;6194162;23;19966;-83
2022/06/27 09:44:31;;;;;;;4.28;1.85;;;20.20;99.90;;;;;;6246157;23;20051;-82
2022/06/27 09:47:18;;;;;;;2.67;1.63;;;20.20;99.90;;;;;;6218894;23;20313;-82
2022/06/27 09:49:52;;;;;;;2.40;1.70;;;20.30;99.90;;;;;;6218820;23;20455;-83
2022/06/27 09:52:27;;;;;;;2.40;1.67;;;20.30;99.90;;;;;;6245675;23;20020;-82
2022/06/27 09:54:54;;;;;;;2.58;2.13;;;20.30;99.90;;;;;;6218377;23;20027;-83
2022/06/27 09:57:21;;;;;;;3.10;1.90;;;20.40;99.90;;;;;;6245544;23;20019;-83
2022/06/27 09:59:50;;;;;;;4.88;2.08;;;20.60;99.90;;;;;;6245390;23;20356;-82
2022/06/27 10:02:19;;;;;;;2.17;1.95;;;20.70;99.90;;;;;;6219114;23;20344;-82
2022/06/27 10:04:47;;;;;;;2.20;2.00;;;20.70;99.90;;;;;;6218686;23;20059;-82
2022/06/27 10:07:15;;;;;;;4.40;2.05;;;20.80;99.90;;;;;;6245734;23;20016;-83
2022/06/27 10:09:42;;;;;;;14.63;2.05;;;20.70;99.90;;;;;;6245733;23;20016;-83
2022/06/27 10:12:36;;;;;;;2.50;2.10;;;20.70;99.90;;;;;;6218793;23;20348;-83
2022/06/27 10:15:20;;;;;;;3.35;2.20;;;20.60;99.90;;;;;;6245696;23;20022;-82
2022/06/27 10:17:46;;;;;;;3.40;2.60;;;20.30;99.90;;;;;;6218708;23;20028;-82
2022/06/27 10:20:15;;;;;;;2.40;2.20;;;20.20;99.90;;;;;;6245386;23;20030;-83
2022/06/27 10:22:42;;;;;;;4.22;2.38;;;20.00;99.90;;;;;;6245004;23;20514;-83
2022/06/27 10:25:50;;;;;;;4.18;2.47;;;19.90;99.90;;;;;;6245733;23;20016;-82
2022/06/27 10:28:22;;;;;;;2.95;2.50;;;19.80;99.90;;;;;;6192505;23;20031;-83
2022/06/27 10:30:58;;;;;;;4.78;2.33;;;19.80;99.90;;;;;;6245532;23;20016;-83
2022/06/27 10:33:28;;;;;;;20.70;4.00;;;19.80;99.90;;;;;;6214105;23;20023;-83
2022/06/27 10:36:02;;;;;;;11.00;2.90;;;19.80;99.90;;;;;;6215116;23;20023;-83
2022/06/27 10:38:39;;;;;;;6.22;2.50;;;19.80;99.90;;;;;;6193794;23;20016;-86
2022/06/27 10:41:09;;;;;;;3.00;2.40;;;20.00;99.90;;;;;;6192929;23;20016;-82
2022/06/27 10:43:48;;;;;;;2.60;2.20;;;20.10;99.90;;;;;;6217845;23;20023;-83
2022/06/27 10:46:13;;;;;;;4.50;2.65;;;20.20;99.90;;;;;;6218673;23;20016;-83
2022/06/27 10:48:48;;;;;;;5.38;2.40;;;20.10;99.90;;;;;;6218761;23;20030;-82
2022/06/27 10:51:27;;;;;;;5.13;2.58;;;20.10;99.90;;;;;;6245140;23;20457;-83
2022/06/27 10:54:09;;;;;;;4.65;3.00;;;20.10;99.90;;;;;;6193691;23;20467;-83
2022/06/27 10:56:52;;;;;;;6.38;3.28;;;20.10;99.90;;;;;;6245149;22;20070;-83
2022/06/27 10:59:17;;;;;;;4.68;3.03;;;20.10;99.90;;;;;;6245527;23;20027;-83
2022/06/27 11:02:05;;;;;;;3.65;2.90;;;20.10;99.90;;;;;;6218755;23;20016;-83
2022/06/27 11:04:34;;;;;;;4.13;3.00;;;20.10;99.90;;;;;;6245033;23;20459;-83
2022/06/27 11:10:29;;;;;;;4.53;3.45;;;20.30;99.90;;;;;;6119792;23;20018;-83
2022/06/27 11:13:31;;;;;;;5.82;3.83;;;20.30;99.90;;;;;;6073536;23;20018;-84
2022/06/27 11:15:59;;;;;;;4.05;3.65;;;20.20;99.90;;;;;;6098225;23;20383;-82
2022/06/27 11:18:41;;;;;;;4.60;3.65;;;20.00;99.90;;;;;;6123697;23;20014;-82
2022/06/27 11:21:09;;;;;;;6.25;3.70;;;19.80;99.90;;;;;;6125163;23;20096;-83
2022/06/27 11:23:55;;;;;;;5.70;3.85;;;19.80;99.90;;;;;;6122832;23;20029;-82
2022/06/27 11:26:26;;;;;;;9.25;3.97;;;19.80;99.90;;;;;;6098706;23;20026;-82
2022/06/27 11:32:57;;;;;;;5.28;3.95;;;20.10;99.90;;;;;;6098448;23;20022;-82
2022/06/27 11:35:23;;;;;;;6.05;4.18;;;20.30;99.90;;;;;;6104087;23;20028;-80
2022/06/27 11:37:49;;;;;;;6.22;4.25;;;20.50;99.90;;;;;;6126480;23;20456;-83
2022/06/27 11:40:15;;;;;;;6.63;3.95;;;20.70;99.90;;;;;;6127777;23;20049;-83
2022/06/27 11:42:41;;;;;;;6.72;4.60;;;20.80;99.90;;;;;;6128756;23;20068;-83
2022/06/27 11:45:10;;;;;;;7.18;3.78;;;20.80;99.90;;;;;;6130621;23;20018;-83
2022/06/27 11:47:38;;;;;;;4.30;3.70;;;20.80;99.90;;;;;;6252416;23;20340;-82
2022/06/27 11:50:12;;;;;;;6.78;3.92;;;20.80;99.90;;;;;;6221342;23;20012;-83
2022/06/27 11:52:44;;;;;;;6.30;3.35;;;20.90;99.90;;;;;;6247968;23;20020;-82
2022/06/27 11:55:09;;;;;;;7.03;2.85;;;20.90;99.90;;;;;;6220790;23;20012;-83
2022/06/27 11:57:36;;;;;;;4.97;2.45;;;20.90;99.90;;;;;;6194902;23;20027;-82
2022/06/27 12:00:04;;;;;;;4.85;2.85;;;20.90;99.90;;;;;;6247781;23;20427;-82
2022/06/27 12:02:38;;;;;;;2.95;2.28;;;21.20;99.90;;;;;;6247832;23;20020;-83
2022/06/27 12:05:07;;;;;;;7.47;3.20;;;21.40;99.90;;;;;;6214273;23;20068;-83
2022/06/27 12:07:58;;;;;;;6.05;3.25;;;21.60;99.90;;;;;;6189910;23;20020;-83
2022/06/27 12:10:36;;;;;;;5.63;4.03;;;21.80;99.90;;;;;;6217032;23;20047;-83
2022/06/27 12:13:03;;;;;;;4.65;3.70;;;21.90;99.90;;;;;;6215511;23;20025;-83
2022/06/27 12:15:29;;;;;;;5.90;3.83;;;22.00;99.90;;;;;;6215393;23;20021;-83
2022/06/27 12:17:57;;;;;;;5.03;3.75;;;22.20;99.90;;;;;;6216690;23;20074;-83
2022/06/27 12:20:24;;;;;;;7.22;3.70;;;22.20;99.90;;;;;;6214768;23;20017;-83
2022/06/27 12:22:50;;;;;;;4.90;3.92;;;22.10;99.90;;;;;;6215030;23;20397;-83
2022/06/27 12:25:17;;;;;;;28.27;4.70;;;22.00;99.90;;;;;;6216394;23;20027;-82
2022/06/27 12:27:43;;;;;;;5.90;3.45;;;21.90;99.90;;;;;;6216520;23;20024;-83
2022/06/27 12:30:18;;;;;;;7.15;3.78;;;22.00;99.90;;;;;;6213790;23;20024;-83
2022/06/27 12:32:44;;;;;;;6.72;3.67;;;22.00;99.90;;;;;;6215512;23;20023;-82
2022/06/27 12:35:10;;;;;;;4.57;3.20;;;22.00;99.90;;;;;;6214768;23;20103;-82
2022/06/27 12:37:37;;;;;;;6.15;3.50;;;22.00;99.90;;;;;;6216864;23;20098;-82
2022/06/27 12:40:05;;;;;;;4.43;3.25;;;21.90;99.90;;;;;;6216943;23;20013;-82
2022/06/27 12:42:30;;;;;;;4.88;3.00;;;21.90;99.90;;;;;;6215404;23;20016;-82
2022/06/27 12:44:56;;;;;;;5.60;3.40;;;22.00;99.90;;;;;;6215065;23;20016;-82
2022/06/27 12:47:22;;;;;;;6.78;3.03;;;22.10;99.90;;;;;;6215274;23;20068;-83
2022/06/27 12:49:47;;;;;;;6.18;2.80;;;21.90;99.90;;;;;;6215322;23;20052;-82
2022/06/27 12:52:13;;;;;;;5.93;3.10;;;21.90;99.90;;;;;;6216861;23;20451;-82
2022/06/27 12:54:39;;;;;;;6.85;3.33;;;21.90;99.90;;;;;;6215485;23;20024;-86
2022/06/27 12:57:06;;;;;;;4.75;2.75;;;21.90;99.90;;;;;;6215229;23;20009;-83
2022/06/27 12:59:33;;;;;;;4.97;3.10;;;21.90;99.90;;;;;;6217004;23;20027;-83
2022/06/27 13:01:59;;;;;;;5.50;3.03;;;21.80;99.90;;;;;;6216855;23;20453;-83